sensor_id;sensor_type;location;lat;lon;timestamp;temperature;humidity
22450;DHT22;11392;57.390;-2.468;2023-03-17T00:00:44;7.90;99.90
22450;DHT22;11392;57.390;-2.468;2023-03-17T00:03:24;8.00;99.90
22450;DHT22;11392;57.390;-2.468;2023-03-17T00:05:56;8.00;99.90
22450;DHT22;11392;57.390;-2.468;2023-03-17T00:08:30;8.00;99.90
22450;DHT22;11392;57.390;-2.468;2023-03-17T00:10:58;8.00;99.90
22450;DHT22;11392;57.390;-2.468;2023-03-17T00:13:26;8.00;99.90
22450;DHT22;11392;57.390;-2.468;2023-03-17T00:16:02;8.00;99.90
22450;DHT22;11392;57.390;-2.468;2023-03-17T00:18:29;8.00;99.90
22450;DHT22;11392;57.390;-2.468;2023-03-17T00:20:59;8.00;99.90
22450;DHT22;11392;57.390;-2.468;2023-03-17T00:23:26;8.00;99.90
22450;DHT22;11392;57.390;-2.468;2023-03-17T00:25:53;7.90;99.90
22450;DHT22;11392;57.390;-2.468;2023-03-17T00:28:23;7.90;99.90
22450;DHT22;11392;57.390;-2.468;2023-03-17T00:30:54;7.80;99.90
22450;DHT22;11392;57.390;-2.468;2023-03-17T00:33:27;7.80;99.90
22450;DHT22;11392;57.390;-2.468;2023-03-17T00:35:56;7.80;99.90
22450;DHT22;11392;57.390;-2.468;2023-03-17T00:38:24;7.80;99.90
22450;DHT22;11392;57.390;-2.468;2023-03-17T00:40:52;7.70;99.90
22450;DHT22;11392;57.390;-2.468;2023-03-17T00:43:20;7.70;99.90
22450;DHT22;11392;57.390;-2.468;2023-03-17T00:45:47;7.60;99.90
22450;DHT22;11392;57.390;-2.468;2023-03-17T00:48:19;7.60;99.90
22450;DHT22;11392;57.390;-2.468;2023-03-17T00:50:48;7.60;99.90
22450;DHT22;11392;57.390;-2.468;2023-03-17T00:53:18;7.60;99.90
22450;DHT22;11392;57.390;-2.468;2023-03-17T00:55:46;7.60;99.90
22450;DHT22;11392;57.390;-2.468;2023-03-17T00:58:26;7.60;99.90
22450;DHT22;11392;57.390;-2.468;2023-03-17T01:00:55;7.60;99.90
22450;DHT22;11392;57.390;-2.468;2023-03-17T01:03:22;7.60;99.90
22450;DHT22;11392;57.390;-2.468;2023-03-17T01:05:51;7.60;99.90
22450;DHT22;11392;57.390;-2.468;2023-03-17T01:08:19;7.60;99.90
22450;DHT22;11392;57.390;-2.468;2023-03-17T01:10:48;7.60;99.90
22450;DHT22;11392;57.390;-2.468;2023-03-17T01:13:16;7.70;99.90
22450;DHT22;11392;57.390;-2.468;2023-03-17T01:15:47;7.70;99.90
22450;DHT22;11392;57.390;-2.468;2023-03-17T01:18:16;7.80;99.90
22450;DHT22;11392;57.390;-2.468;2023-03-17T01:20:43;7.80;99.90
22450;DHT22;11392;57.390;-2.468;2023-03-17T01:23:11;7.80;99.90
22450;DHT22;11392;57.390;-2.468;2023-03-17T01:25:40;7.80;99.90
22450;DHT22;11392;57.390;-2.468;2023-03-17T01:28:18;7.80;99.90
22450;DHT22;11392;57.390;-2.468;2023-03-17T01:30:46;7.70;99.90
22450;DHT22;11392;57.390;-2.468;2023-03-17T01:33:13;7.70;99.90
22450;DHT22;11392;57.390;-2.468;2023-03-17T01:35:41;7.70;99.90
22450;DHT22;11392;57.390;-2.468;2023-03-17T01:38:09;7.60;99.90
22450;DHT22;11392;57.390;-2.468;2023-03-17T01:40:42;7.70;99.90
22450;DHT22;11392;57.390;-2.468;2023-03-17T01:54:55;7.60;99.90
22450;DHT22;11392;57.390;-2.468;2023-03-17T02:00:06;7.70;99.90
22450;DHT22;11392;57.390;-2.468;2023-03-17T02:02:37;7.70;99.90
22450;DHT22;11392;57.390;-2.468;2023-03-17T02:05:08;7.60;99.90
22450;DHT22;11392;57.390;-2.468;2023-03-17T02:07:36;7.60;99.90
22450;DHT22;11392;57.390;-2.468;2023-03-17T02:10:04;7.60;99.90
22450;DHT22;11392;57.390;-2.468;2023-03-17T02:12:33;7.60;99.90
22450;DHT22;11392;57.390;-2.468;2023-03-17T02:15:01;7.50;99.90
22450;DHT22;11392;57.390;-2.468;2023-03-17T02:17:28;7.50;99.90
22450;DHT22;11392;57.390;-2.468;2023-03-17T02:19:55;7.40;99.90
22450;DHT22;11392;57.390;-2.468;2023-03-17T02:22:22;7.40;99.90
22450;DHT22;11392;57.390;-2.468;2023-03-17T02:24:56;7.40;99.90
22450;DHT22;11392;57.390;-2.468;2023-03-17T02:27:34;7.40;99.90
22450;DHT22;11392;57.390;-2.468;2023-03-17T02:30:02;7.40;99.90
22450;DHT22;11392;57.390;-2.468;2023-03-17T02:32:34;7.30;99.90
22450;DHT22;11392;57.390;-2.468;2023-03-17T02:35:02;7.30;99.90
22450;DHT22;11392;57.390;-2.468;2023-03-17T02:37:29;7.30;99.90
22450;DHT22;11392;57.390;-2.468;2023-03-17T02:39:56;7.30;99.90
22450;DHT22;11392;57.390;-2.468;2023-03-17T02:42:24;7.30;99.90
22450;DHT22;11392;57.390;-2.468;2023-03-17T02:44:51;7.30;99.90
22450;DHT22;11392;57.390;-2.468;2023-03-17T02:47:18;7.30;99.90
22450;DHT22;11392;57.390;-2.468;2023-03-17T02:49:45;7.20;99.90
22450;DHT22;11392;57.390;-2.468;2023-03-17T02:52:12;7.10;99.90
22450;DHT22;11392;57.390;-2.468;2023-03-17T02:54:39;6.90;99.90
22450;DHT22;11392;57.390;-2.468;2023-03-17T02:57:06;6.80;99.90
22450;DHT22;11392;57.390;-2.468;2023-03-17T02:59:35;6.60;99.90
22450;DHT22;11392;57.390;-2.468;2023-03-17T03:02:02;6.60;99.90
22450;DHT22;11392;57.390;-2.468;2023-03-17T03:04:29;6.50;99.90
22450;DHT22;11392;57.390;-2.468;2023-03-17T03:06:56;6.50;99.90
22450;DHT22;11392;57.390;-2.468;2023-03-17T03:09:23;6.50;99.90
22450;DHT22;11392;57.390;-2.468;2023-03-17T03:11:51;6.50;99.90
22450;DHT22;11392;57.390;-2.468;2023-03-17T03:14:18;6.50;99.90
22450;DHT22;11392;57.390;-2.468;2023-03-17T03:16:45;6.70;99.90
22450;DHT22;11392;57.390;-2.468;2023-03-17T03:19:13;6.70;99.90
22450;DHT22;11392;57.390;-2.468;2023-03-17T03:21:40;6.80;99.90
22450;DHT22;11392;57.390;-2.468;2023-03-17T03:24:08;6.80;99.90
22450;DHT22;11392;57.390;-2.468;2023-03-17T03:26:35;6.90;99.90
22450;DHT22;11392;57.390;-2.468;2023-03-17T03:29:03;7.00;99.90
22450;DHT22;11392;57.390;-2.468;2023-03-17T03:31:30;7.00;99.90
22450;DHT22;11392;57.390;-2.468;2023-03-17T03:33:57;7.00;99.90
22450;DHT22;11392;57.390;-2.468;2023-03-17T03:36:24;7.10;99.90
22450;DHT22;11392;57.390;-2.468;2023-03-17T03:38:52;7.10;99.90
22450;DHT22;11392;57.390;-2.468;2023-03-17T03:41:20;7.20;99.90
22450;DHT22;11392;57.390;-2.468;2023-03-17T03:43:47;7.20;99.90
22450;DHT22;11392;57.390;-2.468;2023-03-17T03:46:14;7.20;99.90
22450;DHT22;11392;57.390;-2.468;2023-03-17T03:48:41;7.20;99.90
22450;DHT22;11392;57.390;-2.468;2023-03-17T03:51:08;7.10;99.90
22450;DHT22;11392;57.390;-2.468;2023-03-17T03:53:35;7.00;99.90
22450;DHT22;11392;57.390;-2.468;2023-03-17T03:56:03;6.90;99.90
22450;DHT22;11392;57.390;-2.468;2023-03-17T03:58:30;6.90;99.90
22450;DHT22;11392;57.390;-2.468;2023-03-17T04:00:57;6.80;99.90
22450;DHT22;11392;57.390;-2.468;2023-03-17T04:03:24;6.90;99.90
22450;DHT22;11392;57.390;-2.468;2023-03-17T04:05:51;7.00;99.90
22450;DHT22;11392;57.390;-2.468;2023-03-17T04:08:18;7.00;99.90
22450;DHT22;11392;57.390;-2.468;2023-03-17T04:10:45;7.00;99.90
22450;DHT22;11392;57.390;-2.468;2023-03-17T04:13:13;7.10;99.90
22450;DHT22;11392;57.390;-2.468;2023-03-17T04:15:41;7.10;99.90
22450;DHT22;11392;57.390;-2.468;2023-03-17T04:18:08;7.10;99.90
22450;DHT22;11392;57.390;-2.468;2023-03-17T04:20:35;7.10;99.90
22450;DHT22;11392;57.390;-2.468;2023-03-17T04:23:02;7.20;99.90
22450;DHT22;11392;57.390;-2.468;2023-03-17T04:25:29;7.20;99.90
22450;DHT22;11392;57.390;-2.468;2023-03-17T04:27:57;7.20;99.90
22450;DHT22;11392;57.390;-2.468;2023-03-17T04:30:24;7.10;99.90
22450;DHT22;11392;57.390;-2.468;2023-03-17T04:32:52;7.10;99.90
22450;DHT22;11392;57.390;-2.468;2023-03-17T04:35:20;7.10;99.90
22450;DHT22;11392;57.390;-2.468;2023-03-17T04:37:50;7.10;99.90
22450;DHT22;11392;57.390;-2.468;2023-03-17T04:40:18;7.20;99.90
22450;DHT22;11392;57.390;-2.468;2023-03-17T04:42:45;7.30;99.90
22450;DHT22;11392;57.390;-2.468;2023-03-17T04:45:13;7.30;99.90
22450;DHT22;11392;57.390;-2.468;2023-03-17T04:47:43;7.30;99.90
22450;DHT22;11392;57.390;-2.468;2023-03-17T04:50:13;7.40;99.90
22450;DHT22;11392;57.390;-2.468;2023-03-17T04:52:40;7.40;99.90
22450;DHT22;11392;57.390;-2.468;2023-03-17T04:55:08;7.40;99.90
22450;DHT22;11392;57.390;-2.468;2023-03-17T04:57:36;7.40;99.90
22450;DHT22;11392;57.390;-2.468;2023-03-17T05:00:04;7.40;99.90
22450;DHT22;11392;57.390;-2.468;2023-03-17T05:02:32;7.40;99.90
22450;DHT22;11392;57.390;-2.468;2023-03-17T05:04:59;7.40;99.90
22450;DHT22;11392;57.390;-2.468;2023-03-17T05:07:26;7.40;99.90
22450;DHT22;11392;57.390;-2.468;2023-03-17T05:09:53;7.40;99.90
22450;DHT22;11392;57.390;-2.468;2023-03-17T05:12:20;7.40;99.90
22450;DHT22;11392;57.390;-2.468;2023-03-17T05:14:47;7.30;99.90
22450;DHT22;11392;57.390;-2.468;2023-03-17T05:17:14;7.30;99.90
22450;DHT22;11392;57.390;-2.468;2023-03-17T05:19:42;7.20;99.90
22450;DHT22;11392;57.390;-2.468;2023-03-17T05:22:10;7.10;99.90
22450;DHT22;11392;57.390;-2.468;2023-03-17T05:24:37;7.10;99.90
22450;DHT22;11392;57.390;-2.468;2023-03-17T05:27:04;7.10;99.90
22450;DHT22;11392;57.390;-2.468;2023-03-17T05:29:31;7.00;99.90
22450;DHT22;11392;57.390;-2.468;2023-03-17T05:31:58;7.00;99.90
22450;DHT22;11392;57.390;-2.468;2023-03-17T05:34:25;7.00;99.90
22450;DHT22;11392;57.390;-2.468;2023-03-17T05:36:53;7.10;99.90
22450;DHT22;11392;57.390;-2.468;2023-03-17T05:39:20;7.10;99.90
22450;DHT22;11392;57.390;-2.468;2023-03-17T05:41:47;7.20;99.90
22450;DHT22;11392;57.390;-2.468;2023-03-17T05:44:14;7.20;99.90
22450;DHT22;11392;57.390;-2.468;2023-03-17T05:46:42;7.20;99.90
22450;DHT22;11392;57.390;-2.468;2023-03-17T05:49:09;7.20;99.90
22450;DHT22;11392;57.390;-2.468;2023-03-17T05:51:36;7.20;99.90
22450;DHT22;11392;57.390;-2.468;2023-03-17T05:54:03;7.20;99.90
22450;DHT22;11392;57.390;-2.468;2023-03-17T05:56:30;7.10;99.90
22450;DHT22;11392;57.390;-2.468;2023-03-17T05:59:00;7.10;99.90
22450;DHT22;11392;57.390;-2.468;2023-03-17T06:01:28;7.10;99.90
22450;DHT22;11392;57.390;-2.468;2023-03-17T06:03:55;7.10;99.90
22450;DHT22;11392;57.390;-2.468;2023-03-17T06:06:22;7.10;99.90
22450;DHT22;11392;57.390;-2.468;2023-03-17T06:08:50;7.10;99.90
22450;DHT22;11392;57.390;-2.468;2023-03-17T06:11:17;7.10;99.90
22450;DHT22;11392;57.390;-2.468;2023-03-17T06:13:46;7.10;99.90
22450;DHT22;11392;57.390;-2.468;2023-03-17T06:16:14;7.10;99.90
22450;DHT22;11392;57.390;-2.468;2023-03-17T06:18:41;7.20;99.90
22450;DHT22;11392;57.390;-2.468;2023-03-17T06:21:08;7.20;99.90
22450;DHT22;11392;57.390;-2.468;2023-03-17T06:23:36;7.20;99.90
22450;DHT22;11392;57.390;-2.468;2023-03-17T06:26:03;7.20;99.90
22450;DHT22;11392;57.390;-2.468;2023-03-17T06:28:31;7.30;99.90
22450;DHT22;11392;57.390;-2.468;2023-03-17T06:30:58;7.30;99.90
22450;DHT22;11392;57.390;-2.468;2023-03-17T06:33:25;7.20;99.90
22450;DHT22;11392;57.390;-2.468;2023-03-17T06:35:52;7.20;99.90
22450;DHT22;11392;57.390;-2.468;2023-03-17T06:38:20;7.10;99.90
22450;DHT22;11392;57.390;-2.468;2023-03-17T06:40:47;7.10;99.90
22450;DHT22;11392;57.390;-2.468;2023-03-17T06:43:14;7.10;99.90
22450;DHT22;11392;57.390;-2.468;2023-03-17T06:45:43;7.00;99.90
22450;DHT22;11392;57.390;-2.468;2023-03-17T06:48:10;7.00;99.90
22450;DHT22;11392;57.390;-2.468;2023-03-17T06:50:37;7.00;99.90
22450;DHT22;11392;57.390;-2.468;2023-03-17T06:53:04;6.90;99.90
22450;DHT22;11392;57.390;-2.468;2023-03-17T06:55:31;6.90;99.90
22450;DHT22;11392;57.390;-2.468;2023-03-17T06:57:59;6.80;99.90
22450;DHT22;11392;57.390;-2.468;2023-03-17T07:00:27;6.90;99.90
22450;DHT22;11392;57.390;-2.468;2023-03-17T07:02:56;6.90;99.90
22450;DHT22;11392;57.390;-2.468;2023-03-17T07:05:23;6.80;99.90
22450;DHT22;11392;57.390;-2.468;2023-03-17T07:07:50;6.90;99.90
22450;DHT22;11392;57.390;-2.468;2023-03-17T07:10:18;6.90;99.90
22450;DHT22;11392;57.390;-2.468;2023-03-17T07:12:45;6.90;99.90
22450;DHT22;11392;57.390;-2.468;2023-03-17T07:15:13;7.00;99.90
22450;DHT22;11392;57.390;-2.468;2023-03-17T07:17:40;7.00;99.90
22450;DHT22;11392;57.390;-2.468;2023-03-17T07:20:08;7.00;99.90
22450;DHT22;11392;57.390;-2.468;2023-03-17T07:22:37;7.00;99.90
22450;DHT22;11392;57.390;-2.468;2023-03-17T07:25:05;7.10;99.90
22450;DHT22;11392;57.390;-2.468;2023-03-17T07:27:32;7.10;99.90
22450;DHT22;11392;57.390;-2.468;2023-03-17T07:29:59;7.20;99.90
22450;DHT22;11392;57.390;-2.468;2023-03-17T07:32:30;7.20;99.90
22450;DHT22;11392;57.390;-2.468;2023-03-17T07:34:58;7.20;99.90
22450;DHT22;11392;57.390;-2.468;2023-03-17T07:37:25;7.30;99.90
22450;DHT22;11392;57.390;-2.468;2023-03-17T07:39:52;7.40;99.90
22450;DHT22;11392;57.390;-2.468;2023-03-17T07:42:19;7.40;99.90
22450;DHT22;11392;57.390;-2.468;2023-03-17T07:44:46;7.40;99.90
22450;DHT22;11392;57.390;-2.468;2023-03-17T07:47:13;7.40;99.90
22450;DHT22;11392;57.390;-2.468;2023-03-17T07:49:41;7.40;99.90
22450;DHT22;11392;57.390;-2.468;2023-03-17T07:52:09;7.40;99.90
22450;DHT22;11392;57.390;-2.468;2023-03-17T07:54:37;7.40;99.90
22450;DHT22;11392;57.390;-2.468;2023-03-17T07:57:08;7.50;99.90
22450;DHT22;11392;57.390;-2.468;2023-03-17T07:59:35;7.50;99.90
22450;DHT22;11392;57.390;-2.468;2023-03-17T08:02:04;7.60;99.90
22450;DHT22;11392;57.390;-2.468;2023-03-17T08:04:31;7.50;99.90
22450;DHT22;11392;57.390;-2.468;2023-03-17T08:06:58;7.70;99.90
22450;DHT22;11392;57.390;-2.468;2023-03-17T08:09:25;7.80;99.90
22450;DHT22;11392;57.390;-2.468;2023-03-17T08:11:53;7.80;99.90
22450;DHT22;11392;57.390;-2.468;2023-03-17T08:14:20;8.00;99.90
22450;DHT22;11392;57.390;-2.468;2023-03-17T08:16:47;8.00;99.90
22450;DHT22;11392;57.390;-2.468;2023-03-17T08:19:14;8.10;99.90
22450;DHT22;11392;57.390;-2.468;2023-03-17T08:21:42;8.20;99.90
22450;DHT22;11392;57.390;-2.468;2023-03-17T08:24:09;8.30;99.90
22450;DHT22;11392;57.390;-2.468;2023-03-17T08:26:36;8.40;99.90
22450;DHT22;11392;57.390;-2.468;2023-03-17T08:29:04;8.60;99.90
22450;DHT22;11392;57.390;-2.468;2023-03-17T08:31:31;8.80;99.90
22450;DHT22;11392;57.390;-2.468;2023-03-17T08:33:59;9.10;99.90
22450;DHT22;11392;57.390;-2.468;2023-03-17T08:36:28;9.60;99.90
22450;DHT22;11392;57.390;-2.468;2023-03-17T08:38:55;9.50;99.90
22450;DHT22;11392;57.390;-2.468;2023-03-17T08:41:24;9.50;99.90
22450;DHT22;11392;57.390;-2.468;2023-03-17T08:43:53;9.50;99.90
22450;DHT22;11392;57.390;-2.468;2023-03-17T08:48:50;9.40;99.90
22450;DHT22;11392;57.390;-2.468;2023-03-17T08:51:18;9.40;99.90
22450;DHT22;11392;57.390;-2.468;2023-03-17T08:53:50;9.40;99.90
22450;DHT22;11392;57.390;-2.468;2023-03-17T08:56:18;9.40;99.90
22450;DHT22;11392;57.390;-2.468;2023-03-17T08:58:46;9.40;99.90
22450;DHT22;11392;57.390;-2.468;2023-03-17T09:01:13;9.40;99.90
22450;DHT22;11392;57.390;-2.468;2023-03-17T09:03:42;9.40;99.90
22450;DHT22;11392;57.390;-2.468;2023-03-17T09:06:10;9.40;99.90
22450;DHT22;11392;57.390;-2.468;2023-03-17T09:08:40;9.40;99.90
22450;DHT22;11392;57.390;-2.468;2023-03-17T09:11:13;9.40;99.90
22450;DHT22;11392;57.390;-2.468;2023-03-17T09:13:40;9.50;99.90
22450;DHT22;11392;57.390;-2.468;2023-03-17T09:16:07;9.40;99.90
22450;DHT22;11392;57.390;-2.468;2023-03-17T09:18:36;9.50;99.90
22450;DHT22;11392;57.390;-2.468;2023-03-17T09:21:03;9.50;99.90
22450;DHT22;11392;57.390;-2.468;2023-03-17T09:23:31;9.50;99.90
22450;DHT22;11392;57.390;-2.468;2023-03-17T09:25:59;9.50;99.90
22450;DHT22;11392;57.390;-2.468;2023-03-17T09:28:27;9.50;99.90
22450;DHT22;11392;57.390;-2.468;2023-03-17T09:31:02;9.50;99.90
22450;DHT22;11392;57.390;-2.468;2023-03-17T09:33:31;9.50;99.90
22450;DHT22;11392;57.390;-2.468;2023-03-17T09:35:58;9.50;99.90
22450;DHT22;11392;57.390;-2.468;2023-03-17T09:38:26;9.60;99.90
22450;DHT22;11392;57.390;-2.468;2023-03-17T09:46:44;10.00;99.90
22450;DHT22;11392;57.390;-2.468;2023-03-17T09:49:20;10.20;99.90
22450;DHT22;11392;57.390;-2.468;2023-03-17T09:51:53;10.40;99.90
22450;DHT22;11392;57.390;-2.468;2023-03-17T09:54:32;10.60;99.90
22450;DHT22;11392;57.390;-2.468;2023-03-17T09:57:13;10.70;99.90
22450;DHT22;11392;57.390;-2.468;2023-03-17T09:59:48;10.90;99.90
22450;DHT22;11392;57.390;-2.468;2023-03-17T10:02:27;11.00;99.90
22450;DHT22;11392;57.390;-2.468;2023-03-17T10:04:55;11.10;99.90
22450;DHT22;11392;57.390;-2.468;2023-03-17T10:07:41;11.20;99.90
22450;DHT22;11392;57.390;-2.468;2023-03-17T10:18:32;11.20;99.90
22450;DHT22;11392;57.390;-2.468;2023-03-17T10:21:05;11.20;99.90
22450;DHT22;11392;57.390;-2.468;2023-03-17T10:23:34;11.20;99.90
22450;DHT22;11392;57.390;-2.468;2023-03-17T10:26:06;11.20;99.90
22450;DHT22;11392;57.390;-2.468;2023-03-17T10:28:35;11.30;99.90
22450;DHT22;11392;57.390;-2.468;2023-03-17T10:31:15;11.30;99.90
22450;DHT22;11392;57.390;-2.468;2023-03-17T10:33:49;11.30;99.90
22450;DHT22;11392;57.390;-2.468;2023-03-17T10:36:33;11.40;99.90
22450;DHT22;11392;57.390;-2.468;2023-03-17T10:39:03;11.50;99.90
22450;DHT22;11392;57.390;-2.468;2023-03-17T10:41:34;11.50;99.90
22450;DHT22;11392;57.390;-2.468;2023-03-17T10:44:19;11.60;99.90
22450;DHT22;11392;57.390;-2.468;2023-03-17T10:46:54;11.80;99.90
22450;DHT22;11392;57.390;-2.468;2023-03-17T10:49:22;12.00;99.90
22450;DHT22;11392;57.390;-2.468;2023-03-17T10:51:52;12.40;99.90
22450;DHT22;11392;57.390;-2.468;2023-03-17T10:54:23;12.90;99.90
22450;DHT22;11392;57.390;-2.468;2023-03-17T10:57:06;13.40;99.90
22450;DHT22;11392;57.390;-2.468;2023-03-17T10:59:41;14.20;99.90
22450;DHT22;11392;57.390;-2.468;2023-03-17T11:02:28;14.80;99.90
22450;DHT22;11392;57.390;-2.468;2023-03-17T11:05:03;14.80;99.90
22450;DHT22;11392;57.390;-2.468;2023-03-17T11:07:38;14.90;99.90
22450;DHT22;11392;57.390;-2.468;2023-03-17T11:10:21;14.90;99.90
22450;DHT22;11392;57.390;-2.468;2023-03-17T11:13:01;14.80;99.90
22450;DHT22;11392;57.390;-2.468;2023-03-17T11:15:34;14.50;99.90
22450;DHT22;11392;57.390;-2.468;2023-03-17T11:18:16;14.50;99.90
22450;DHT22;11392;57.390;-2.468;2023-03-17T11:20:58;14.30;99.90
22450;DHT22;11392;57.390;-2.468;2023-03-17T11:32:12;13.50;99.90
22450;DHT22;11392;57.390;-2.468;2023-03-17T11:35:23;13.50;99.90
22450;DHT22;11392;57.390;-2.468;2023-03-17T11:44:01;14.10;99.90
22450;DHT22;11392;57.390;-2.468;2023-03-17T11:54:50;14.90;99.90
22450;DHT22;11392;57.390;-2.468;2023-03-17T11:57:46;14.90;99.90
22450;DHT22;11392;57.390;-2.468;2023-03-17T12:00:19;15.00;99.90
22450;DHT22;11392;57.390;-2.468;2023-03-17T12:02:54;15.20;99.90
22450;DHT22;11392;57.390;-2.468;2023-03-17T12:05:25;15.20;99.90
22450;DHT22;11392;57.390;-2.468;2023-03-17T12:08:13;15.40;99.90
22450;DHT22;11392;57.390;-2.468;2023-03-17T12:10:54;15.30;99.90
22450;DHT22;11392;57.390;-2.468;2023-03-17T12:13:29;15.00;99.90
22450;DHT22;11392;57.390;-2.468;2023-03-17T12:16:13;14.90;99.90
22450;DHT22;11392;57.390;-2.468;2023-03-17T12:21:32;14.80;99.90
22450;DHT22;11392;57.390;-2.468;2023-03-17T12:26:42;14.70;99.90
22450;DHT22;11392;57.390;-2.468;2023-03-17T12:29:34;14.70;99.90
22450;DHT22;11392;57.390;-2.468;2023-03-17T12:34:51;14.30;99.90
22450;DHT22;11392;57.390;-2.468;2023-03-17T12:37:25;14.20;99.90
22450;DHT22;11392;57.390;-2.468;2023-03-17T12:40:01;14.10;99.90
22450;DHT22;11392;57.390;-2.468;2023-03-17T12:53:48;13.80;99.90
22450;DHT22;11392;57.390;-2.468;2023-03-17T12:56:58;13.70;99.90
22450;DHT22;11392;57.390;-2.468;2023-03-17T12:59:21;13.70;99.90
22450;DHT22;11392;57.390;-2.468;2023-03-17T13:04:53;14.00;99.90
22450;DHT22;11392;57.390;-2.468;2023-03-17T13:07:32;14.10;99.90
22450;DHT22;11392;57.390;-2.468;2023-03-17T13:20:43;14.50;99.90
22450;DHT22;11392;57.390;-2.468;2023-03-17T13:23:13;14.70;99.90
22450;DHT22;11392;57.390;-2.468;2023-03-17T13:38:30;14.70;99.90
22450;DHT22;11392;57.390;-2.468;2023-03-17T13:47:12;15.00;99.90
22450;DHT22;11392;57.390;-2.468;2023-03-17T13:49:46;15.50;99.90
22450;DHT22;11392;57.390;-2.468;2023-03-17T13:52:17;15.70;99.90
22450;DHT22;11392;57.390;-2.468;2023-03-17T13:56:03;15.70;99.90
22450;DHT22;11392;57.390;-2.468;2023-03-17T14:00:31;15.70;99.90
22450;DHT22;11392;57.390;-2.468;2023-03-17T14:03:12;15.90;99.90
22450;DHT22;11392;57.390;-2.468;2023-03-17T14:05:41;16.00;99.90
22450;DHT22;11392;57.390;-2.468;2023-03-17T14:10:57;15.60;99.90
22450;DHT22;11392;57.390;-2.468;2023-03-17T14:16:19;15.30;99.90
22450;DHT22;11392;57.390;-2.468;2023-03-17T14:18:50;15.10;99.90
22450;DHT22;11392;57.390;-2.468;2023-03-17T14:21:31;14.90;99.90
22450;DHT22;11392;57.390;-2.468;2023-03-17T14:24:01;14.70;99.90
22450;DHT22;11392;57.390;-2.468;2023-03-17T14:26:29;14.50;99.90
22450;DHT22;11392;57.390;-2.468;2023-03-17T14:29:02;14.30;99.90
22450;DHT22;11392;57.390;-2.468;2023-03-17T14:31:30;14.10;99.90
22450;DHT22;11392;57.390;-2.468;2023-03-17T14:33:59;14.00;99.90
22450;DHT22;11392;57.390;-2.468;2023-03-17T14:36:32;13.90;99.90
22450;DHT22;11392;57.390;-2.468;2023-03-17T14:39:00;13.80;99.90
22450;DHT22;11392;57.390;-2.468;2023-03-17T14:41:28;13.70;99.90
22450;DHT22;11392;57.390;-2.468;2023-03-17T14:43:58;13.50;99.90
22450;DHT22;11392;57.390;-2.468;2023-03-17T14:46:36;13.30;99.90
22450;DHT22;11392;57.390;-2.468;2023-03-17T14:49:18;13.10;99.90
22450;DHT22;11392;57.390;-2.468;2023-03-17T14:51:49;13.00;99.90
22450;DHT22;11392;57.390;-2.468;2023-03-17T14:54:23;12.80;99.90
22450;DHT22;11392;57.390;-2.468;2023-03-17T14:56:55;12.50;99.90
22450;DHT22;11392;57.390;-2.468;2023-03-17T14:59:29;12.30;99.90
22450;DHT22;11392;57.390;-2.468;2023-03-17T15:01:59;12.10;99.90
22450;DHT22;11392;57.390;-2.468;2023-03-17T15:04:29;12.00;99.90
22450;DHT22;11392;57.390;-2.468;2023-03-17T15:07:02;11.90;99.90
22450;DHT22;11392;57.390;-2.468;2023-03-17T15:09:37;11.80;99.90
22450;DHT22;11392;57.390;-2.468;2023-03-17T15:12:18;11.70;99.90
22450;DHT22;11392;57.390;-2.468;2023-03-17T15:14:50;11.60;99.90
22450;DHT22;11392;57.390;-2.468;2023-03-17T15:19:48;11.40;99.90
22450;DHT22;11392;57.390;-2.468;2023-03-17T15:27:58;11.30;99.90
22450;DHT22;11392;57.390;-2.468;2023-03-17T15:30:26;11.20;99.90
22450;DHT22;11392;57.390;-2.468;2023-03-17T15:33:20;11.20;99.90
22450;DHT22;11392;57.390;-2.468;2023-03-17T15:35:49;11.20;99.90
22450;DHT22;11392;57.390;-2.468;2023-03-17T15:38:17;11.20;99.90
22450;DHT22;11392;57.390;-2.468;2023-03-17T15:40:44;11.20;99.90
22450;DHT22;11392;57.390;-2.468;2023-03-17T15:43:16;11.10;99.90
22450;DHT22;11392;57.390;-2.468;2023-03-17T15:45:44;11.10;99.90
22450;DHT22;11392;57.390;-2.468;2023-03-17T15:48:19;11.10;99.90
22450;DHT22;11392;57.390;-2.468;2023-03-17T15:50:49;11.10;99.90
22450;DHT22;11392;57.390;-2.468;2023-03-17T15:53:17;11.00;99.90
22450;DHT22;11392;57.390;-2.468;2023-03-17T15:55:44;10.80;99.90
22450;DHT22;11392;57.390;-2.468;2023-03-17T15:58:12;10.90;99.90
22450;DHT22;11392;57.390;-2.468;2023-03-17T16:00:40;10.80;99.90
22450;DHT22;11392;57.390;-2.468;2023-03-17T16:03:15;10.70;99.90
22450;DHT22;11392;57.390;-2.468;2023-03-17T16:05:44;10.70;99.90
22450;DHT22;11392;57.390;-2.468;2023-03-17T16:08:13;10.60;99.90
22450;DHT22;11392;57.390;-2.468;2023-03-17T16:10:40;10.60;99.90
22450;DHT22;11392;57.390;-2.468;2023-03-17T16:13:07;10.60;99.90
22450;DHT22;11392;57.390;-2.468;2023-03-17T16:15:40;10.50;99.90
22450;DHT22;11392;57.390;-2.468;2023-03-17T16:18:17;10.40;99.90
22450;DHT22;11392;57.390;-2.468;2023-03-17T16:20:51;10.40;99.90
22450;DHT22;11392;57.390;-2.468;2023-03-17T16:23:22;10.40;99.90
22450;DHT22;11392;57.390;-2.468;2023-03-17T16:25:50;10.20;99.90
22450;DHT22;11392;57.390;-2.468;2023-03-17T16:28:23;10.20;99.90
22450;DHT22;11392;57.390;-2.468;2023-03-17T16:30:52;10.10;99.90
22450;DHT22;11392;57.390;-2.468;2023-03-17T16:33:21;10.10;99.90
22450;DHT22;11392;57.390;-2.468;2023-03-17T16:35:49;10.10;99.90
22450;DHT22;11392;57.390;-2.468;2023-03-17T16:38:23;10.10;99.90
22450;DHT22;11392;57.390;-2.468;2023-03-17T16:41:05;10.00;99.90
22450;DHT22;11392;57.390;-2.468;2023-03-17T16:43:34;10.00;99.90
22450;DHT22;11392;57.390;-2.468;2023-03-17T16:46:05;10.10;99.90
22450;DHT22;11392;57.390;-2.468;2023-03-17T16:48:33;10.10;99.90
22450;DHT22;11392;57.390;-2.468;2023-03-17T16:51:00;10.10;99.90
22450;DHT22;11392;57.390;-2.468;2023-03-17T16:53:27;10.00;99.90
22450;DHT22;11392;57.390;-2.468;2023-03-17T16:55:54;10.00;99.90
22450;DHT22;11392;57.390;-2.468;2023-03-17T16:58:28;9.90;99.90
22450;DHT22;11392;57.390;-2.468;2023-03-17T17:01:01;10.00;99.90
22450;DHT22;11392;57.390;-2.468;2023-03-17T17:03:29;9.90;99.90
22450;DHT22;11392;57.390;-2.468;2023-03-17T17:05:57;9.90;99.90
22450;DHT22;11392;57.390;-2.468;2023-03-17T17:08:24;9.80;99.90
22450;DHT22;11392;57.390;-2.468;2023-03-17T17:10:51;9.80;99.90
22450;DHT22;11392;57.390;-2.468;2023-03-17T17:13:18;9.80;99.90
22450;DHT22;11392;57.390;-2.468;2023-03-17T17:15:45;9.80;99.90
22450;DHT22;11392;57.390;-2.468;2023-03-17T17:18:15;9.90;99.90
22450;DHT22;11392;57.390;-2.468;2023-03-17T17:20:44;9.90;99.90
22450;DHT22;11392;57.390;-2.468;2023-03-17T17:23:14;9.80;99.90
22450;DHT22;11392;57.390;-2.468;2023-03-17T17:25:42;9.80;99.90
22450;DHT22;11392;57.390;-2.468;2023-03-17T17:28:11;9.80;99.90
22450;DHT22;11392;57.390;-2.468;2023-03-17T17:30:39;9.70;99.90
22450;DHT22;11392;57.390;-2.468;2023-03-17T17:33:11;9.70;99.90
22450;DHT22;11392;57.390;-2.468;2023-03-17T17:35:38;9.60;99.90
22450;DHT22;11392;57.390;-2.468;2023-03-17T17:38:32;9.60;99.90
22450;DHT22;11392;57.390;-2.468;2023-03-17T17:40:59;9.50;99.90
22450;DHT22;11392;57.390;-2.468;2023-03-17T17:43:31;9.50;99.90
22450;DHT22;11392;57.390;-2.468;2023-03-17T17:45:58;9.40;99.90